sensor_id;sensor_type;location;lat;lon;timestamp;P1;durP1;ratioP1;P2;durP2;ratioP2
10633;SDS011;5365;51.640;8.106;2022-08-05T00:00:07;2.42;;;2.22;;
10633;SDS011;5365;51.640;8.106;2022-08-05T00:02:29;2.60;;;2.40;;
10633;SDS011;5365;51.640;8.106;2022-08-05T00:04:51;2.15;;;1.95;;
10633;SDS011;5365;51.640;8.106;2022-08-05T00:07:13;3.17;;;2.38;;
10633;SDS011;5365;51.640;8.106;2022-08-05T00:09:35;3.85;;;2.10;;
10633;SDS011;5365;51.640;8.106;2022-08-05T00:11:57;5.97;;;2.20;;
10633;SDS011;5365;51.640;8.106;2022-08-05T00:14:19;3.22;;;2.30;;
10633;SDS011;5365;51.640;8.106;2022-08-05T00:16:40;2.55;;;2.20;;
10633;SDS011;5365;51.640;8.106;2022-08-05T00:19:02;1.98;;;1.88;;
10633;SDS011;5365;51.640;8.106;2022-08-05T00:21:24;5.80;;;2.35;;
10633;SDS011;5365;51.640;8.106;2022-08-05T00:23:46;4.60;;;2.38;;
10633;SDS011;5365;51.640;8.106;2022-08-05T00:26:09;3.75;;;2.20;;
10633;SDS011;5365;51.640;8.106;2022-08-05T00:28:31;2.40;;;2.20;;
10633;SDS011;5365;51.640;8.106;2022-08-05T00:30:53;3.60;;;2.22;;
10633;SDS011;5365;51.640;8.106;2022-08-05T00:33:15;3.10;;;2.38;;
10633;SDS011;5365;51.640;8.106;2022-08-05T00:35:37;3.80;;;2.47;;
10633;SDS011;5365;51.640;8.106;2022-08-05T00:37:59;3.97;;;2.03;;
10633;SDS011;5365;51.640;8.106;2022-08-05T00:40:22;4.22;;;2.58;;
10633;SDS011;5365;51.640;8.106;2022-08-05T00:42:45;3.55;;;2.65;;
10633;SDS011;5365;51.640;8.106;2022-08-05T00:45:07;5.55;;;2.92;;
10633;SDS011;5365;51.640;8.106;2022-08-05T00:47:30;3.28;;;2.38;;
10633;SDS011;5365;51.640;8.106;2022-08-05T00:49:51;3.95;;;2.80;;
10633;SDS011;5365;51.640;8.106;2022-08-05T00:52:13;6.15;;;3.22;;
10633;SDS011;5365;51.640;8.106;2022-08-05T00:54:35;2.75;;;2.55;;
10633;SDS011;5365;51.640;8.106;2022-08-05T00:56:57;6.43;;;2.88;;
10633;SDS011;5365;51.640;8.106;2022-08-05T00:59:19;4.10;;;3.00;;
10633;SDS011;5365;51.640;8.106;2022-08-05T01:01:40;3.42;;;2.95;;
10633;SDS011;5365;51.640;8.106;2022-08-05T01:04:03;3.63;;;2.70;;
10633;SDS011;5365;51.640;8.106;2022-08-05T01:06:25;3.55;;;2.95;;
10633;SDS011;5365;51.640;8.106;2022-08-05T01:08:47;5.75;;;3.13;;
10633;SDS011;5365;51.640;8.106;2022-08-05T01:11:20;3.30;;;2.97;;
10633;SDS011;5365;51.640;8.106;2022-08-05T01:13:53;3.22;;;2.88;;
10633;SDS011;5365;51.640;8.106;2022-08-05T01:19:11;4.88;;;3.53;;
10633;SDS011;5365;51.640;8.106;2022-08-05T01:30:16;7.72;;;2.97;;
10633;SDS011;5365;51.640;8.106;2022-08-05T01:32:39;3.00;;;2.80;;
10633;SDS011;5365;51.640;8.106;2022-08-05T01:35:02;3.65;;;3.20;;
10633;SDS011;5365;51.640;8.106;2022-08-05T01:39:52;3.33;;;3.03;;
10633;SDS011;5365;51.640;8.106;2022-08-05T01:42:16;4.47;;;3.22;;
10633;SDS011;5365;51.640;8.106;2022-08-05T01:44:40;4.93;;;3.67;;
10633;SDS011;5365;51.640;8.106;2022-08-05T01:47:03;5.45;;;3.15;;
10633;SDS011;5365;51.640;8.106;2022-08-05T01:49:25;4.72;;;3.35;;
10633;SDS011;5365;51.640;8.106;2022-08-05T01:51:48;4.75;;;3.72;;
10633;SDS011;5365;51.640;8.106;2022-08-05T01:54:10;6.07;;;3.33;;
10633;SDS011;5365;51.640;8.106;2022-08-05T01:56:34;3.58;;;3.38;;
10633;SDS011;5365;51.640;8.106;2022-08-05T01:58:59;4.70;;;3.58;;
10633;SDS011;5365;51.640;8.106;2022-08-05T02:01:21;5.25;;;3.95;;
10633;SDS011;5365;51.640;8.106;2022-08-05T02:03:44;4.15;;;3.75;;
10633;SDS011;5365;51.640;8.106;2022-08-05T02:06:07;4.63;;;3.38;;
10633;SDS011;5365;51.640;8.106;2022-08-05T02:08:30;4.25;;;3.47;;
10633;SDS011;5365;51.640;8.106;2022-08-05T02:10:55;5.30;;;3.80;;
10633;SDS011;5365;51.640;8.106;2022-08-05T02:16:13;5.97;;;3.65;;
10633;SDS011;5365;51.640;8.106;2022-08-05T02:18:44;8.73;;;4.00;;
10633;SDS011;5365;51.640;8.106;2022-08-05T02:21:11;5.18;;;4.00;;
10633;SDS011;5365;51.640;8.106;2022-08-05T02:23:36;8.23;;;4.32;;
10633;SDS011;5365;51.640;8.106;2022-08-05T02:25:59;3.95;;;3.53;;
10633;SDS011;5365;51.640;8.106;2022-08-05T02:28:24;5.13;;;3.95;;
10633;SDS011;5365;51.640;8.106;2022-08-05T02:30:49;4.50;;;3.90;;
10633;SDS011;5365;51.640;8.106;2022-08-05T02:33:16;6.25;;;3.85;;
10633;SDS011;5365;51.640;8.106;2022-08-05T02:35:39;5.18;;;4.13;;
10633;SDS011;5365;51.640;8.106;2022-08-05T02:38:02;4.43;;;4.03;;
10633;SDS011;5365;51.640;8.106;2022-08-05T02:40:24;4.10;;;3.70;;
10633;SDS011;5365;51.640;8.106;2022-08-05T02:42:47;6.45;;;4.30;;
10633;SDS011;5365;51.640;8.106;2022-08-05T02:45:09;4.97;;;4.15;;
10633;SDS011;5365;51.640;8.106;2022-08-05T02:47:31;6.80;;;4.40;;
10633;SDS011;5365;51.640;8.106;2022-08-05T02:49:55;3.97;;;3.67;;
10633;SDS011;5365;51.640;8.106;2022-08-05T02:52:17;4.80;;;4.28;;
10633;SDS011;5365;51.640;8.106;2022-08-05T02:54:40;5.43;;;4.38;;
10633;SDS011;5365;51.640;8.106;2022-08-05T02:57:07;5.63;;;4.30;;
10633;SDS011;5365;51.640;8.106;2022-08-05T02:59:31;5.43;;;4.93;;
10633;SDS011;5365;51.640;8.106;2022-08-05T03:01:53;4.95;;;4.45;;
10633;SDS011;5365;51.640;8.106;2022-08-05T03:04:18;6.55;;;4.60;;
10633;SDS011;5365;51.640;8.106;2022-08-05T03:06:40;7.97;;;4.88;;
10633;SDS011;5365;51.640;8.106;2022-08-05T03:09:03;6.28;;;4.50;;
10633;SDS011;5365;51.640;8.106;2022-08-05T03:11:25;6.82;;;4.80;;
10633;SDS011;5365;51.640;8.106;2022-08-05T03:13:48;7.25;;;5.07;;
10633;SDS011;5365;51.640;8.106;2022-08-05T03:16:10;5.68;;;5.07;;
10633;SDS011;5365;51.640;8.106;2022-08-05T03:18:32;9.73;;;4.80;;
10633;SDS011;5365;51.640;8.106;2022-08-05T03:20:54;6.82;;;5.05;;
10633;SDS011;5365;51.640;8.106;2022-08-05T03:23:15;6.88;;;4.55;;
10633;SDS011;5365;51.640;8.106;2022-08-05T03:25:37;9.10;;;5.40;;
10633;SDS011;5365;51.640;8.106;2022-08-05T03:28:03;5.30;;;4.68;;
10633;SDS011;5365;51.640;8.106;2022-08-05T03:30:27;6.50;;;4.80;;
10633;SDS011;5365;51.640;8.106;2022-08-05T03:32:49;5.85;;;5.10;;
10633;SDS011;5365;51.640;8.106;2022-08-05T03:35:11;5.97;;;5.32;;
10633;SDS011;5365;51.640;8.106;2022-08-05T03:37:33;5.15;;;4.57;;
10633;SDS011;5365;51.640;8.106;2022-08-05T03:39:56;5.55;;;4.97;;
10633;SDS011;5365;51.640;8.106;2022-08-05T03:42:20;6.88;;;5.00;;
10633;SDS011;5365;51.640;8.106;2022-08-05T03:44:41;7.20;;;4.95;;
10633;SDS011;5365;51.640;8.106;2022-08-05T03:47:03;7.00;;;4.93;;
10633;SDS011;5365;51.640;8.106;2022-08-05T03:49:25;8.18;;;5.43;;
10633;SDS011;5365;51.640;8.106;2022-08-05T03:57:13;7.75;;;4.60;;
10633;SDS011;5365;51.640;8.106;2022-08-05T03:59:40;7.55;;;5.70;;
10633;SDS011;5365;51.640;8.106;2022-08-05T04:02:03;8.00;;;5.15;;
10633;SDS011;5365;51.640;8.106;2022-08-05T04:04:25;5.88;;;5.20;;
10633;SDS011;5365;51.640;8.106;2022-08-05T04:06:47;7.10;;;5.25;;
10633;SDS011;5365;51.640;8.106;2022-08-05T04:09:10;8.25;;;5.07;;
10633;SDS011;5365;51.640;8.106;2022-08-05T04:11:33;7.60;;;5.10;;
10633;SDS011;5365;51.640;8.106;2022-08-05T04:13:55;8.73;;;4.63;;
10633;SDS011;5365;51.640;8.106;2022-08-05T04:16:18;9.80;;;5.40;;
10633;SDS011;5365;51.640;8.106;2022-08-05T04:18:40;5.55;;;4.93;;
10633;SDS011;5365;51.640;8.106;2022-08-05T04:21:02;13.27;;;6.00;;
10633;SDS011;5365;51.640;8.106;2022-08-05T04:23:25;7.47;;;5.28;;
10633;SDS011;5365;51.640;8.106;2022-08-05T04:25:48;9.18;;;5.03;;
10633;SDS011;5365;51.640;8.106;2022-08-05T04:28:09;6.50;;;5.90;;
10633;SDS011;5365;51.640;8.106;2022-08-05T04:30:31;7.95;;;5.78;;
10633;SDS011;5365;51.640;8.106;2022-08-05T04:32:53;7.97;;;5.68;;
10633;SDS011;5365;51.640;8.106;2022-08-05T04:35:15;8.93;;;6.15;;
10633;SDS011;5365;51.640;8.106;2022-08-05T04:37:37;7.70;;;5.70;;
10633;SDS011;5365;51.640;8.106;2022-08-05T04:39:59;7.65;;;5.50;;
10633;SDS011;5365;51.640;8.106;2022-08-05T04:42:21;6.40;;;5.00;;
10633;SDS011;5365;51.640;8.106;2022-08-05T04:44:42;8.43;;;5.55;;
10633;SDS011;5365;51.640;8.106;2022-08-05T04:47:04;9.10;;;5.35;;
10633;SDS011;5365;51.640;8.106;2022-08-05T04:49:26;7.85;;;5.97;;
10633;SDS011;5365;51.640;8.106;2022-08-05T04:51:48;7.90;;;6.22;;
10633;SDS011;5365;51.640;8.106;2022-08-05T04:54:10;11.75;;;5.85;;
10633;SDS011;5365;51.640;8.106;2022-08-05T04:56:32;8.65;;;6.38;;
10633;SDS011;5365;51.640;8.106;2022-08-05T04:58:55;10.23;;;6.72;;
10633;SDS011;5365;51.640;8.106;2022-08-05T05:01:17;8.50;;;6.18;;
10633;SDS011;5365;51.640;8.106;2022-08-05T05:03:39;9.93;;;6.60;;
10633;SDS011;5365;51.640;8.106;2022-08-05T05:06:01;10.55;;;6.60;;
10633;SDS011;5365;51.640;8.106;2022-08-05T05:08:23;11.50;;;6.88;;
10633;SDS011;5365;51.640;8.106;2022-08-05T05:10:45;7.20;;;6.07;;
10633;SDS011;5365;51.640;8.106;2022-08-05T05:13:08;10.00;;;6.78;;
10633;SDS011;5365;51.640;8.106;2022-08-05T05:15:31;14.23;;;7.50;;
10633;SDS011;5365;51.640;8.106;2022-08-05T05:17:53;12.00;;;6.82;;
10633;SDS011;5365;51.640;8.106;2022-08-05T05:20:15;12.32;;;6.45;;
10633;SDS011;5365;51.640;8.106;2022-08-05T05:22:37;10.35;;;6.78;;
10633;SDS011;5365;51.640;8.106;2022-08-05T05:24:59;8.63;;;6.20;;
10633;SDS011;5365;51.640;8.106;2022-08-05T05:27:21;9.13;;;6.90;;
10633;SDS011;5365;51.640;8.106;2022-08-05T05:29:43;8.23;;;5.95;;
10633;SDS011;5365;51.640;8.106;2022-08-05T05:32:05;7.75;;;6.28;;
10633;SDS011;5365;51.640;8.106;2022-08-05T05:34:27;7.38;;;6.22;;
10633;SDS011;5365;51.640;8.106;2022-08-05T05:36:49;9.05;;;6.38;;
10633;SDS011;5365;51.640;8.106;2022-08-05T05:39:10;9.75;;;6.35;;
10633;SDS011;5365;51.640;8.106;2022-08-05T05:41:33;10.23;;;6.28;;
10633;SDS011;5365;51.640;8.106;2022-08-05T05:43:55;9.43;;;6.15;;
10633;SDS011;5365;51.640;8.106;2022-08-05T05:46:19;7.10;;;5.93;;
10633;SDS011;5365;51.640;8.106;2022-08-05T05:48:40;8.25;;;5.68;;
10633;SDS011;5365;51.640;8.106;2022-08-05T05:51:04;7.65;;;5.95;;
10633;SDS011;5365;51.640;8.106;2022-08-05T05:53:26;7.68;;;5.88;;
10633;SDS011;5365;51.640;8.106;2022-08-05T05:55:48;7.60;;;6.22;;
10633;SDS011;5365;51.640;8.106;2022-08-05T05:58:10;10.10;;;6.43;;
10633;SDS011;5365;51.640;8.106;2022-08-05T06:00:32;8.32;;;6.30;;
10633;SDS011;5365;51.640;8.106;2022-08-05T06:02:54;9.40;;;6.30;;
10633;SDS011;5365;51.640;8.106;2022-08-05T06:05:16;10.65;;;6.57;;
10633;SDS011;5365;51.640;8.106;2022-08-05T06:07:38;9.43;;;7.15;;
10633;SDS011;5365;51.640;8.106;2022-08-05T06:10:01;7.78;;;6.35;;
10633;SDS011;5365;51.640;8.106;2022-08-05T06:12:26;10.15;;;6.75;;
10633;SDS011;5365;51.640;8.106;2022-08-05T06:14:48;8.70;;;6.90;;
10633;SDS011;5365;51.640;8.106;2022-08-05T06:17:10;9.90;;;6.35;;
10633;SDS011;5365;51.640;8.106;2022-08-05T06:19:32;9.07;;;7.40;;
10633;SDS011;5365;51.640;8.106;2022-08-05T06:21:55;7.55;;;6.38;;
10633;SDS011;5365;51.640;8.106;2022-08-05T06:24:17;9.10;;;6.40;;
10633;SDS011;5365;51.640;8.106;2022-08-05T06:26:40;11.07;;;6.70;;
10633;SDS011;5365;51.640;8.106;2022-08-05T06:29:02;10.05;;;7.00;;
10633;SDS011;5365;51.640;8.106;2022-08-05T06:31:24;8.30;;;7.00;;
10633;SDS011;5365;51.640;8.106;2022-08-05T06:33:46;8.52;;;7.38;;
10633;SDS011;5365;51.640;8.106;2022-08-05T06:36:08;10.88;;;7.00;;
10633;SDS011;5365;51.640;8.106;2022-08-05T06:38:29;9.35;;;7.43;;
10633;SDS011;5365;51.640;8.106;2022-08-05T06:40:51;8.70;;;7.07;;
10633;SDS011;5365;51.640;8.106;2022-08-05T06:43:13;13.48;;;7.85;;
10633;SDS011;5365;51.640;8.106;2022-08-05T06:45:37;9.90;;;7.60;;
10633;SDS011;5365;51.640;8.106;2022-08-05T06:47:59;11.50;;;7.85;;
10633;SDS011;5365;51.640;8.106;2022-08-05T06:50:20;12.45;;;8.20;;
10633;SDS011;5365;51.640;8.106;2022-08-05T06:52:42;9.10;;;8.02;;
10633;SDS011;5365;51.640;8.106;2022-08-05T06:55:05;10.90;;;8.52;;
10633;SDS011;5365;51.640;8.106;2022-08-05T06:57:27;12.40;;;9.05;;
10633;SDS011;5365;51.640;8.106;2022-08-05T06:59:49;11.27;;;8.30;;
10633;SDS011;5365;51.640;8.106;2022-08-05T07:02:13;10.55;;;8.30;;
10633;SDS011;5365;51.640;8.106;2022-08-05T07:04:35;11.00;;;9.25;;
10633;SDS011;5365;51.640;8.106;2022-08-05T07:06:57;15.13;;;10.30;;
10633;SDS011;5365;51.640;8.106;2022-08-05T07:09:19;15.43;;;10.20;;
10633;SDS011;5365;51.640;8.106;2022-08-05T07:11:41;13.10;;;10.35;;
10633;SDS011;5365;51.640;8.106;2022-08-05T07:14:05;12.65;;;9.82;;
10633;SDS011;5365;51.640;8.106;2022-08-05T07:16:45;15.05;;;9.93;;
10633;SDS011;5365;51.640;8.106;2022-08-05T07:19:10;13.50;;;10.52;;
10633;SDS011;5365;51.640;8.106;2022-08-05T07:21:31;14.40;;;10.48;;
10633;SDS011;5365;51.640;8.106;2022-08-05T07:23:53;18.40;;;11.98;;
10633;SDS011;5365;51.640;8.106;2022-08-05T07:26:15;14.50;;;11.02;;
10633;SDS011;5365;51.640;8.106;2022-08-05T07:28:40;12.20;;;9.90;;
10633;SDS011;5365;51.640;8.106;2022-08-05T07:31:01;12.15;;;9.57;;
10633;SDS011;5365;51.640;8.106;2022-08-05T07:33:23;13.23;;;10.00;;
10633;SDS011;5365;51.640;8.106;2022-08-05T07:35:46;12.75;;;10.10;;
10633;SDS011;5365;51.640;8.106;2022-08-05T07:38:08;15.55;;;11.35;;
10633;SDS011;5365;51.640;8.106;2022-08-05T07:40:30;16.17;;;10.90;;
10633;SDS011;5365;51.640;8.106;2022-08-05T07:42:53;15.30;;;11.88;;
10633;SDS011;5365;51.640;8.106;2022-08-05T07:45:15;16.30;;;12.13;;
10633;SDS011;5365;51.640;8.106;2022-08-05T07:47:36;16.67;;;11.77;;
10633;SDS011;5365;51.640;8.106;2022-08-05T07:49:58;18.20;;;11.73;;
10633;SDS011;5365;51.640;8.106;2022-08-05T07:52:20;15.68;;;11.85;;
10633;SDS011;5365;51.640;8.106;2022-08-05T07:54:42;17.48;;;13.07;;
10633;SDS011;5365;51.640;8.106;2022-08-05T07:57:04;16.95;;;12.88;;
10633;SDS011;5365;51.640;8.106;2022-08-05T07:59:26;17.88;;;12.40;;
10633;SDS011;5365;51.640;8.106;2022-08-05T08:01:48;17.15;;;12.13;;
10633;SDS011;5365;51.640;8.106;2022-08-05T08:04:09;20.05;;;13.35;;
10633;SDS011;5365;51.640;8.106;2022-08-05T08:06:31;19.05;;;13.35;;
10633;SDS011;5365;51.640;8.106;2022-08-05T08:08:53;17.77;;;12.35;;
10633;SDS011;5365;51.640;8.106;2022-08-05T08:11:15;20.40;;;13.57;;
10633;SDS011;5365;51.640;8.106;2022-08-05T08:13:37;18.30;;;13.02;;
10633;SDS011;5365;51.640;8.106;2022-08-05T08:16:01;20.98;;;14.02;;
10633;SDS011;5365;51.640;8.106;2022-08-05T08:18:22;16.50;;;13.15;;
10633;SDS011;5365;51.640;8.106;2022-08-05T08:20:44;19.63;;;13.73;;
10633;SDS011;5365;51.640;8.106;2022-08-05T08:23:06;19.40;;;14.38;;
10633;SDS011;5365;51.640;8.106;2022-08-05T08:25:29;24.73;;;15.18;;
10633;SDS011;5365;51.640;8.106;2022-08-05T08:27:51;19.65;;;14.15;;
10633;SDS011;5365;51.640;8.106;2022-08-05T08:30:14;21.33;;;15.10;;
10633;SDS011;5365;51.640;8.106;2022-08-05T08:32:36;21.15;;;14.43;;
10633;SDS011;5365;51.640;8.106;2022-08-05T08:34:58;19.15;;;13.88;;
10633;SDS011;5365;51.640;8.106;2022-08-05T08:37:20;23.15;;;15.52;;
10633;SDS011;5365;51.640;8.106;2022-08-05T08:39:41;21.80;;;16.02;;
10633;SDS011;5365;51.640;8.106;2022-08-05T08:42:04;22.35;;;15.52;;
10633;SDS011;5365;51.640;8.106;2022-08-05T08:44:30;22.95;;;15.68;;
10633;SDS011;5365;51.640;8.106;2022-08-05T08:46:53;23.55;;;14.27;;
10633;SDS011;5365;51.640;8.106;2022-08-05T08:49:15;20.30;;;13.57;;
10633;SDS011;5365;51.640;8.106;2022-08-05T08:51:40;21.98;;;14.07;;
10633;SDS011;5365;51.640;8.106;2022-08-05T08:54:03;19.20;;;13.90;;
10633;SDS011;5365;51.640;8.106;2022-08-05T08:56:25;20.90;;;13.90;;
10633;SDS011;5365;51.640;8.106;2022-08-05T08:58:47;20.13;;;14.32;;
10633;SDS011;5365;51.640;8.106;2022-08-05T09:01:10;19.60;;;14.75;;
10633;SDS011;5365;51.640;8.106;2022-08-05T09:03:32;18.88;;;14.00;;
10633;SDS011;5365;51.640;8.106;2022-08-05T09:05:55;20.38;;;14.23;;
10633;SDS011;5365;51.640;8.106;2022-08-05T09:08:16;23.65;;;14.27;;
10633;SDS011;5365;51.640;8.106;2022-08-05T09:10:40;19.55;;;12.52;;
10633;SDS011;5365;51.640;8.106;2022-08-05T09:13:02;16.65;;;11.95;;
10633;SDS011;5365;51.640;8.106;2022-08-05T09:15:24;13.32;;;10.40;;
10633;SDS011;5365;51.640;8.106;2022-08-05T09:17:46;14.20;;;10.18;;
10633;SDS011;5365;51.640;8.106;2022-08-05T09:20:09;13.52;;;10.80;;
10633;SDS011;5365;51.640;8.106;2022-08-05T09:25:32;15.73;;;10.43;;
10633;SDS011;5365;51.640;8.106;2022-08-05T09:27:54;12.27;;;9.23;;
10633;SDS011;5365;51.640;8.106;2022-08-05T09:30:16;14.35;;;10.38;;
10633;SDS011;5365;51.640;8.106;2022-08-05T09:32:38;15.15;;;10.82;;
10633;SDS011;5365;51.640;8.106;2022-08-05T09:35:13;13.57;;;10.05;;
10633;SDS011;5365;51.640;8.106;2022-08-05T09:37:36;15.15;;;11.07;;
10633;SDS011;5365;51.640;8.106;2022-08-05T09:39:57;14.73;;;10.63;;
10633;SDS011;5365;51.640;8.106;2022-08-05T09:42:20;17.85;;;12.50;;
10633;SDS011;5365;51.640;8.106;2022-08-05T09:44:44;14.38;;;10.88;;
10633;SDS011;5365;51.640;8.106;2022-08-05T09:47:07;10.15;;;9.07;;
10633;SDS011;5365;51.640;8.106;2022-08-05T09:49:31;12.38;;;9.10;;
10633;SDS011;5365;51.640;8.106;2022-08-05T09:51:53;11.05;;;7.75;;
10633;SDS011;5365;51.640;8.106;2022-08-05T09:54:15;11.52;;;8.05;;
10633;SDS011;5365;51.640;8.106;2022-08-05T09:56:37;10.10;;;8.15;;
10633;SDS011;5365;51.640;8.106;2022-08-05T09:59:06;11.82;;;9.02;;
10633;SDS011;5365;51.640;8.106;2022-08-05T10:01:30;15.02;;;9.85;;
10633;SDS011;5365;51.640;8.106;2022-08-05T10:03:58;11.25;;;8.23;;
10633;SDS011;5365;51.640;8.106;2022-08-05T10:06:25;12.43;;;9.02;;
10633;SDS011;5365;51.640;8.106;2022-08-05T10:08:49;12.13;;;7.85;;
10633;SDS011;5365;51.640;8.106;2022-08-05T10:11:15;10.18;;;8.13;;
10633;SDS011;5365;51.640;8.106;2022-08-05T10:13:37;12.52;;;8.25;;
10633;SDS011;5365;51.640;8.106;2022-08-05T10:16:00;12.05;;;7.95;;
10633;SDS011;5365;51.640;8.106;2022-08-05T10:18:23;9.32;;;7.53;;
10633;SDS011;5365;51.640;8.106;2022-08-05T10:23:14;8.30;;;7.28;;
10633;SDS011;5365;51.640;8.106;2022-08-05T10:25:37;9.30;;;6.90;;
10633;SDS011;5365;51.640;8.106;2022-08-05T10:27:59;8.10;;;5.28;;
10633;SDS011;5365;51.640;8.106;2022-08-05T10:30:23;7.43;;;5.60;;
10633;SDS011;5365;51.640;8.106;2022-08-05T10:32:45;6.50;;;5.13;;
10633;SDS011;5365;51.640;8.106;2022-08-05T10:35:12;6.45;;;4.97;;
10633;SDS011;5365;51.640;8.106;2022-08-05T10:37:35;5.95;;;5.38;;
10633;SDS011;5365;51.640;8.106;2022-08-05T10:39:57;7.40;;;5.05;;
10633;SDS011;5365;51.640;8.106;2022-08-05T10:42:25;8.38;;;5.60;;
10633;SDS011;5365;51.640;8.106;2022-08-05T10:44:48;6.60;;;5.38;;
10633;SDS011;5365;51.640;8.106;2022-08-05T10:47:12;8.35;;;6.35;;
10633;SDS011;5365;51.640;8.106;2022-08-05T10:49:35;7.68;;;6.55;;
10633;SDS011;5365;51.640;8.106;2022-08-05T10:52:36;7.88;;;6.38;;
10633;SDS011;5365;51.640;8.106;2022-08-05T10:55:08;8.15;;;6.72;;
10633;SDS011;5365;51.640;8.106;2022-08-05T10:57:32;8.40;;;6.70;;
10633;SDS011;5365;51.640;8.106;2022-08-05T11:02:31;10.68;;;7.28;;
10633;SDS011;5365;51.640;8.106;2022-08-05T11:04:53;9.60;;;7.82;;
10633;SDS011;5365;51.640;8.106;2022-08-05T11:07:16;11.02;;;8.35;;
10633;SDS011;5365;51.640;8.106;2022-08-05T11:09:51;9.43;;;7.93;;
10633;SDS011;5365;51.640;8.106;2022-08-05T11:12:48;10.60;;;8.15;;
10633;SDS011;5365;51.640;8.106;2022-08-05T11:17:51;7.88;;;7.07;;
10633;SDS011;5365;51.640;8.106;2022-08-05T11:22:59;11.82;;;7.80;;
10633;SDS011;5365;51.640;8.106;2022-08-05T11:30:32;9.68;;;7.43;;
10633;SDS011;5365;51.640;8.106;2022-08-05T11:38:49;8.63;;;7.30;;
10633;SDS011;5365;51.640;8.106;2022-08-05T11:41:21;9.82;;;7.95;;
10633;SDS011;5365;51.640;8.106;2022-08-05T11:46:24;10.10;;;7.25;;
10633;SDS011;5365;51.640;8.106;2022-08-05T11:48:49;9.27;;;7.57;;
10633;SDS011;5365;51.640;8.106;2022-08-05T11:51:11;8.73;;;7.82;;
10633;SDS011;5365;51.640;8.106;2022-08-05T11:53:35;7.68;;;6.88;;
10633;SDS011;5365;51.640;8.106;2022-08-05T11:56:00;10.10;;;7.82;;
10633;SDS011;5365;51.640;8.106;2022-08-05T12:00:59;6.18;;;5.55;;
10633;SDS011;5365;51.640;8.106;2022-08-05T12:03:22;5.75;;;5.15;;
10633;SDS011;5365;51.640;8.106;2022-08-05T12:05:44;5.13;;;4.63;;
10633;SDS011;5365;51.640;8.106;2022-08-05T12:08:06;5.05;;;4.38;;
10633;SDS011;5365;51.640;8.106;2022-08-05T12:10:31;6.68;;;4.80;;
10633;SDS011;5365;51.640;8.106;2022-08-05T12:13:02;6.38;;;4.07;;
10633;SDS011;5365;51.640;8.106;2022-08-05T12:15:25;4.40;;;4.00;;
10633;SDS011;5365;51.640;8.106;2022-08-05T12:17:47;6.40;;;3.75;;
10633;SDS011;5365;51.640;8.106;2022-08-05T12:20:08;4.00;;;3.63;;
10633;SDS011;5365;51.640;8.106;2022-08-05T12:22:31;4.15;;;3.85;;
10633;SDS011;5365;51.640;8.106;2022-08-05T12:24:52;4.40;;;4.00;;
10633;SDS011;5365;51.640;8.106;2022-08-05T12:27:20;6.00;;;3.65;;
10633;SDS011;5365;51.640;8.106;2022-08-05T12:29:56;3.28;;;3.08;;
10633;SDS011;5365;51.640;8.106;2022-08-05T12:32:19;4.30;;;3.80;;
10633;SDS011;5365;51.640;8.106;2022-08-05T12:34:41;4.35;;;3.08;;
10633;SDS011;5365;51.640;8.106;2022-08-05T12:37:07;3.45;;;3.20;;
10633;SDS011;5365;51.640;8.106;2022-08-05T12:39:32;4.50;;;3.17;;
10633;SDS011;5365;51.640;8.106;2022-08-05T12:41:58;3.47;;;2.90;;
10633;SDS011;5365;51.640;8.106;2022-08-05T12:44:20;3.10;;;2.70;;
10633;SDS011;5365;51.640;8.106;2022-08-05T12:46:42;2.95;;;2.72;;
10633;SDS011;5365;51.640;8.106;2022-08-05T12:49:13;3.15;;;2.90;;
10633;SDS011;5365;51.640;8.106;2022-08-05T12:51:45;3.13;;;2.90;;
10633;SDS011;5365;51.640;8.106;2022-08-05T12:54:17;3.10;;;2.60;;
10633;SDS011;5365;51.640;8.106;2022-08-05T12:56:46;3.22;;;2.40;;
10633;SDS011;5365;51.640;8.106;2022-08-05T12:59:17;2.30;;;2.10;;
10633;SDS011;5365;51.640;8.106;2022-08-05T13:01:56;2.30;;;2.10;;
10633;SDS011;5365;51.640;8.106;2022-08-05T13:04:27;3.40;;;2.08;;
10633;SDS011;5365;51.640;8.106;2022-08-05T13:06:50;2.13;;;1.90;;
10633;SDS011;5365;51.640;8.106;2022-08-05T13:09:12;2.55;;;2.00;;
10633;SDS011;5365;51.640;8.106;2022-08-05T13:11:36;2.25;;;2.05;;
10633;SDS011;5365;51.640;8.106;2022-08-05T13:14:01;2.13;;;1.70;;
10633;SDS011;5365;51.640;8.106;2022-08-05T13:16:22;2.33;;;1.73;;
10633;SDS011;5365;51.640;8.106;2022-08-05T13:18:51;1.80;;;1.70;;
10633;SDS011;5365;51.640;8.106;2022-08-05T13:21:14;2.00;;;1.90;;
10633;SDS011;5365;51.640;8.106;2022-08-05T13:23:35;2.20;;;2.00;;
10633;SDS011;5365;51.640;8.106;2022-08-05T13:25:57;2.53;;;2.22;;
10633;SDS011;5365;51.640;8.106;2022-08-05T13:28:21;2.30;;;2.10;;
10633;SDS011;5365;51.640;8.106;2022-08-05T13:30:42;2.95;;;2.03;;
10633;SDS011;5365;51.640;8.106;2022-08-05T13:33:04;2.00;;;1.90;;
10633;SDS011;5365;51.640;8.106;2022-08-05T13:35:26;2.67;;;2.42;;
10633;SDS011;5365;51.640;8.106;2022-08-05T13:37:48;2.90;;;2.70;;
10633;SDS011;5365;51.640;8.106;2022-08-05T13:40:10;2.15;;;1.98;;
10633;SDS011;5365;51.640;8.106;2022-08-05T13:42:32;1.98;;;1.80;;
10633;SDS011;5365;51.640;8.106;2022-08-05T13:44:55;2.38;;;2.00;;
10633;SDS011;5365;51.640;8.106;2022-08-05T13:47:18;2.15;;;2.05;;
10633;SDS011;5365;51.640;8.106;2022-08-05T13:49:40;2.08;;;1.90;;
10633;SDS011;5365;51.640;8.106;2022-08-05T13:52:11;2.58;;;2.05;;
10633;SDS011;5365;51.640;8.106;2022-08-05T13:54:34;1.95;;;1.73;;
10633;SDS011;5365;51.640;8.106;2022-08-05T13:56:56;2.15;;;1.92;;
10633;SDS011;5365;51.640;8.106;2022-08-05T13:59:18;1.70;;;1.60;;
10633;SDS011;5365;51.640;8.106;2022-08-05T14:01:41;2.60;;;2.40;;
10633;SDS011;5365;51.640;8.106;2022-08-05T14:04:03;2.15;;;2.05;;
10633;SDS011;5365;51.640;8.106;2022-08-05T14:06:44;3.22;;;2.58;;
10633;SDS011;5365;51.640;8.106;2022-08-05T14:09:06;2.28;;;2.17;;
10633;SDS011;5365;51.640;8.106;2022-08-05T14:11:28;2.65;;;2.45;;
10633;SDS011;5365;51.640;8.106;2022-08-05T14:13:49;2.20;;;2.10;;
10633;SDS011;5365;51.640;8.106;2022-08-05T14:16:11;2.17;;;1.95;;
10633;SDS011;5365;51.640;8.106;2022-08-05T14:18:33;2.38;;;2.10;;
10633;SDS011;5365;51.640;8.106;2022-08-05T14:20:55;2.10;;;2.00;;
10633;SDS011;5365;51.640;8.106;2022-08-05T14:23:17;2.95;;;2.25;;
10633;SDS011;5365;51.640;8.106;2022-08-05T14:25:38;1.95;;;1.85;;
10633;SDS011;5365;51.640;8.106;2022-08-05T14:28:00;1.90;;;1.80;;
10633;SDS011;5365;51.640;8.106;2022-08-05T14:30:22;2.30;;;1.70;;
10633;SDS011;5365;51.640;8.106;2022-08-05T14:32:45;1.85;;;1.75;;
10633;SDS011;5365;51.640;8.106;2022-08-05T14:35:07;2.47;;;1.95;;
10633;SDS011;5365;51.640;8.106;2022-08-05T14:37:29;2.35;;;2.00;;
10633;SDS011;5365;51.640;8.106;2022-08-05T14:39:51;2.33;;;2.10;;
10633;SDS011;5365;51.640;8.106;2022-08-05T14:42:13;2.00;;;1.90;;
10633;SDS011;5365;51.640;8.106;2022-08-05T14:44:37;1.88;;;1.77;;
10633;SDS011;5365;51.640;8.106;2022-08-05T14:46:59;2.28;;;1.80;;
10633;SDS011;5365;51.640;8.106;2022-08-05T14:49:21;2.67;;;2.13;;
10633;SDS011;5365;51.640;8.106;2022-08-05T14:51:43;2.78;;;2.20;;
10633;SDS011;5365;51.640;8.106;2022-08-05T14:54:05;2.85;;;2.30;;
10633;SDS011;5365;51.640;8.106;2022-08-05T14:56:28;2.25;;;2.15;;
10633;SDS011;5365;51.640;8.106;2022-08-05T14:58:50;3.05;;;2.78;;
10633;SDS011;5365;51.640;8.106;2022-08-05T15:01:12;2.67;;;1.90;;
10633;SDS011;5365;51.640;8.106;2022-08-05T15:03:34;2.60;;;2.28;;
10633;SDS011;5365;51.640;8.106;2022-08-05T15:05:56;2.15;;;2.03;;
10633;SDS011;5365;51.640;8.106;2022-08-05T15:08:18;2.08;;;1.80;;
10633;SDS011;5365;51.640;8.106;2022-08-05T15:10:40;3.85;;;2.10;;
10633;SDS011;5365;51.640;8.106;2022-08-05T15:13:03;1.70;;;1.60;;
10633;SDS011;5365;51.640;8.106;2022-08-05T15:15:26;2.17;;;2.08;;
10633;SDS011;5365;51.640;8.106;2022-08-05T15:17:48;2.17;;;2.03;;
10633;SDS011;5365;51.640;8.106;2022-08-05T15:20:10;2.33;;;2.00;;
10633;SDS011;5365;51.640;8.106;2022-08-05T15:22:34;4.68;;;2.20;;